createdAt,value
2018-02-23T00:00:04.678Z,18.20
2018-02-23T00:02:31.365Z,17.35
2018-02-23T00:04:58.181Z,17.33
2018-02-23T00:07:24.895Z,16.90
2018-02-23T00:09:51.639Z,20.17
2018-02-23T00:12:18.358Z,16.25
2018-02-23T00:14:45.044Z,17.40
2018-02-23T00:17:11.773Z,15.45
2018-02-23T00:19:38.461Z,17.48
2018-02-23T00:22:05.146Z,21.10
2018-02-23T00:24:31.964Z,17.30
2018-02-23T00:26:58.658Z,18.30
2018-02-23T00:29:25.368Z,18.67
2018-02-23T00:31:52.069Z,17.80
2018-02-23T00:34:18.764Z,18.75
2018-02-23T00:36:45.525Z,16.62
2018-02-23T00:39:12.184Z,18.67
2018-02-23T00:41:38.889Z,18.02
2018-02-23T00:44:05.741Z,17.77
2018-02-23T00:46:32.441Z,17.17
2018-02-23T00:48:59.225Z,17.25
2018-02-23T00:51:25.975Z,16.67
2018-02-23T00:53:52.672Z,15.20
2018-02-23T00:56:19.464Z,18.83
2018-02-23T00:58:46.196Z,17.60
2018-02-23T01:01:12.890Z,16.25
2018-02-23T01:03:39.637Z,15.43
2018-02-23T01:06:06.325Z,17.17
2018-02-23T01:08:33.044Z,18.17
2018-02-23T01:10:59.736Z,16.48
2018-02-23T01:13:26.469Z,17.40
2018-02-23T01:15:53.200Z,18.62
2018-02-23T01:18:19.901Z,15.77
2018-02-23T01:20:46.838Z,17.87
2018-02-23T01:23:13.539Z,18.80
2018-02-23T01:25:40.257Z,16.30
2018-02-23T01:28:06.960Z,16.15
2018-02-23T01:30:33.668Z,16.58
2018-02-23T01:33:00.353Z,16.87
2018-02-23T01:35:27.089Z,17.80
2018-02-23T01:37:53.776Z,18.05
2018-02-23T01:40:20.633Z,17.98
2018-02-23T01:42:47.399Z,16.37
2018-02-23T01:45:14.141Z,17.90
2018-02-23T01:47:40.846Z,17.75
2018-02-23T01:50:07.533Z,15.55
2018-02-23T01:52:34.244Z,17.15
2018-02-23T01:55:00.945Z,17.52
2018-02-23T01:57:27.658Z,18.67
2018-02-23T01:59:54.373Z,15.23
2018-02-23T02:02:21.077Z,16.62
2018-02-23T02:04:47.880Z,17.60
2018-02-23T02:07:14.574Z,16.70
2018-02-23T02:09:41.282Z,17.00
2018-02-23T02:12:08.052Z,15.75
2018-02-23T02:14:34.764Z,16.10
2018-02-23T02:17:01.548Z,16.08
2018-02-23T02:19:28.332Z,17.92
2018-02-23T02:21:55.041Z,14.98
2018-02-23T02:24:21.725Z,16.87
2018-02-23T02:26:48.424Z,15.93
2018-02-23T02:29:15.117Z,16.40
2018-02-23T02:31:41.899Z,16.37
2018-02-23T02:34:08.595Z,17.25
2018-02-23T02:36:35.322Z,15.35
2018-02-23T02:39:02.019Z,16.25
2018-02-23T02:41:28.715Z,17.62
2018-02-23T02:43:55.408Z,18.70
2018-02-23T02:46:22.097Z,16.90
2018-02-23T02:48:48.809Z,17.70
2018-02-23T02:51:15.521Z,16.80
2018-02-23T02:53:42.227Z,18.12
2018-02-23T02:56:08.958Z,17.87
2018-02-23T02:58:35.645Z,17.85
2018-02-23T03:01:02.335Z,15.98
2018-02-23T03:03:29.037Z,19.15
2018-02-23T03:05:55.936Z,17.90
2018-02-23T03:08:22.642Z,18.05
2018-02-23T03:10:49.352Z,16.33
2018-02-23T03:13:16.033Z,16.52
2018-02-23T03:15:42.861Z,17.42
2018-02-23T03:18:09.554Z,18.67
2018-02-23T03:20:36.475Z,17.80
2018-02-23T03:23:03.169Z,18.92
2018-02-23T03:25:29.973Z,18.05
2018-02-23T03:27:56.681Z,17.45
2018-02-23T03:30:23.396Z,18.65
2018-02-23T03:32:50.106Z,17.27
2018-02-23T03:35:16.804Z,20.45
2018-02-23T03:37:43.505Z,19.75
2018-02-23T03:40:10.226Z,19.73
2018-02-23T03:42:36.905Z,18.02
2018-02-23T03:45:03.608Z,18.55
2018-02-23T03:47:30.324Z,17.48
2018-02-23T03:49:57.032Z,18.35
2018-02-23T03:52:23.721Z,18.90
2018-02-23T03:54:50.431Z,17.17
2018-02-23T03:57:17.126Z,18.42
2018-02-23T03:59:43.825Z,19.92
2018-02-23T04:02:10.574Z,18.55
2018-02-23T04:04:37.301Z,18.55
2018-02-23T04:07:03.977Z,18.37
2018-02-23T04:09:30.672Z,18.60
2018-02-23T04:11:57.447Z,18.27
2018-02-23T04:14:24.154Z,19.75
2018-02-23T04:16:50.839Z,19.37
2018-02-23T04:19:17.624Z,18.50
2018-02-23T04:21:44.332Z,19.42
2018-02-23T04:24:11.012Z,20.85
2018-02-23T04:26:37.792Z,18.25
2018-02-23T04:29:04.484Z,20.52
2018-02-23T04:31:31.193Z,19.75
2018-02-23T04:33:57.878Z,20.50
2018-02-23T04:36:24.574Z,19.60
2018-02-23T04:38:51.306Z,16.92
2018-02-23T04:41:18.137Z,19.17
2018-02-23T04:43:44.821Z,21.85
2018-02-23T04:46:11.753Z,19.33
2018-02-23T04:48:38.437Z,21.50
2018-02-23T04:51:05.116Z,21.10
2018-02-23T04:53:31.833Z,20.62
2018-02-23T04:55:58.525Z,20.90
2018-02-23T04:58:25.302Z,19.77
2018-02-23T05:00:51.978Z,20.25
2018-02-23T05:03:18.693Z,18.17
2018-02-23T05:05:45.377Z,21.52
2018-02-23T05:08:12.069Z,20.55
2018-02-23T05:10:38.781Z,19.20
2018-02-23T05:13:05.478Z,18.92
2018-02-23T05:15:32.183Z,20.88
2018-02-23T05:17:58.876Z,19.30
2018-02-23T05:20:25.576Z,21.23
2018-02-23T05:22:52.284Z,20.33
2018-02-23T05:25:18.997Z,18.25
2018-02-23T05:27:45.922Z,18.90
2018-02-23T05:30:12.596Z,16.45
2018-02-23T05:32:39.292Z,18.33
2018-02-23T05:35:05.989Z,17.37
2018-02-23T05:37:32.689Z,17.35
2018-02-23T05:39:59.386Z,17.52
2018-02-23T05:42:26.070Z,19.98
2018-02-23T05:44:52.857Z,17.40
2018-02-23T05:47:19.628Z,17.10
2018-02-23T05:49:46.355Z,18.48
2018-02-23T05:52:13.033Z,18.70
2018-02-23T05:54:39.743Z,17.30
2018-02-23T05:57:06.430Z,17.23
2018-02-23T05:59:33.109Z,19.25
2018-02-23T06:01:59.927Z,21.92
2018-02-23T06:04:26.625Z,21.67
2018-02-23T06:06:53.367Z,21.73
2018-02-23T06:09:20.045Z,22.27
2018-02-23T06:11:46.757Z,18.08
2018-02-23T06:14:13.465Z,18.80
2018-02-23T06:16:40.156Z,19.48
2018-02-23T06:19:06.979Z,18.83
2018-02-23T06:21:33.750Z,16.67
2018-02-23T06:24:00.506Z,18.30
2018-02-23T06:26:27.212Z,17.30
2018-02-23T06:28:53.930Z,20.08
2018-02-23T06:31:20.611Z,20.50
2018-02-23T06:33:47.325Z,17.70
2018-02-23T06:36:14.013Z,19.90
2018-02-23T06:38:40.851Z,17.23
2018-02-23T06:41:07.540Z,21.62
2018-02-23T06:43:34.226Z,21.40
2018-02-23T06:46:00.917Z,21.48
2018-02-23T06:48:27.618Z,21.17
2018-02-23T06:50:54.329Z,17.95
2018-02-23T06:53:21.021Z,19.23
2018-02-23T06:55:47.702Z,20.12
2018-02-23T06:58:14.410Z,18.30
2018-02-23T07:00:41.275Z,17.98
2018-02-23T07:03:08.162Z,19.62
2018-02-23T07:05:34.866Z,17.80
2018-02-23T07:08:01.638Z,18.55
2018-02-23T07:10:28.333Z,18.98
2018-02-23T07:12:55.029Z,18.35
2018-02-23T07:15:21.731Z,19.02
2018-02-23T07:17:48.416Z,21.33
2018-02-23T07:20:15.122Z,18.73
2018-02-23T07:22:41.978Z,21.25
2018-02-23T07:25:08.678Z,20.85
2018-02-23T07:27:35.373Z,18.80
2018-02-23T07:30:02.090Z,17.95
2018-02-23T07:32:28.817Z,18.45
2018-02-23T07:34:55.604Z,13.85
2018-02-23T07:37:22.313Z,13.18
2018-02-23T07:39:49.058Z,13.90
2018-02-23T07:42:15.808Z,14.57
2018-02-23T07:44:42.497Z,11.38
2018-02-23T07:47:09.200Z,11.20
2018-02-23T07:49:35.897Z,11.37
2018-02-23T07:52:02.669Z,12.97
2018-02-23T07:54:29.519Z,10.50
2018-02-23T07:56:56.209Z,10.20
2018-02-23T07:59:22.909Z,10.90
2018-02-23T08:01:49.636Z,11.10
2018-02-23T08:04:16.349Z,10.27
2018-02-23T08:06:43.198Z,8.97
2018-02-23T08:09:10.046Z,10.10
2018-02-23T08:11:36.725Z,7.00
2018-02-23T08:14:03.422Z,7.50
2018-02-23T08:16:31.001Z,8.03
2018-02-23T08:18:57.920Z,9.40
2018-02-23T08:21:24.594Z,7.67
2018-02-23T08:23:51.304Z,8.50
2018-02-23T08:26:17.968Z,7.23
2018-02-23T08:28:44.654Z,7.90
2018-02-23T08:31:11.453Z,7.60
2018-02-23T08:33:38.149Z,7.60
2018-02-23T08:36:04.955Z,7.20
2018-02-23T08:38:31.701Z,7.10
2018-02-23T08:40:58.407Z,7.77
2018-02-23T08:43:25.210Z,7.20
2018-02-23T08:45:51.905Z,6.93
2018-02-23T08:48:18.645Z,6.67
2018-02-23T08:50:45.337Z,7.13
2018-02-23T08:53:12.038Z,7.10
2018-02-23T08:55:38.726Z,7.37
2018-02-23T08:58:05.434Z,7.30
2018-02-23T09:00:51.944Z,6.27
2018-02-23T09:03:18.641Z,7.90
2018-02-23T09:05:45.332Z,6.93
2018-02-23T09:08:12.063Z,7.00
2018-02-23T09:10:38.832Z,6.90
2018-02-23T09:13:05.581Z,6.90
2018-02-23T09:15:32.334Z,7.23
2018-02-23T09:17:59.189Z,7.10
2018-02-23T09:20:25.940Z,6.30
2018-02-23T09:22:52.629Z,7.23
2018-02-23T09:25:19.393Z,7.13
2018-02-23T09:27:46.394Z,7.50
2018-02-23T09:30:13.177Z,8.10
2018-02-23T09:32:39.967Z,7.77
2018-02-23T09:35:06.682Z,6.90
2018-02-23T09:37:33.417Z,6.57
2018-02-23T09:40:00.294Z,7.30
2018-02-23T09:42:26.991Z,7.70
2018-02-23T09:44:53.676Z,6.60
2018-02-23T09:47:20.373Z,7.77
2018-02-23T09:49:47.069Z,6.83
2018-02-23T09:52:13.817Z,6.77
2018-02-23T09:54:40.518Z,7.03
2018-02-23T09:57:07.212Z,7.33
2018-02-23T09:59:33.886Z,7.57
2018-02-23T10:02:00.672Z,8.50
2018-02-23T10:04:27.410Z,7.60
2018-02-23T10:06:54.115Z,8.03
2018-02-23T10:09:20.789Z,7.60
2018-02-23T10:11:47.536Z,7.33
2018-02-23T10:14:14.302Z,7.77
2018-02-23T10:16:41.138Z,7.70
2018-02-23T10:19:07.814Z,7.60
2018-02-23T10:21:34.500Z,7.23
2018-02-23T10:24:01.171Z,7.30
2018-02-23T10:26:27.886Z,6.80
2018-02-23T10:28:54.566Z,7.40
2018-02-23T10:31:21.236Z,8.27
2018-02-23T10:33:47.954Z,7.83
2018-02-23T10:36:14.649Z,7.03
2018-02-23T10:38:41.366Z,8.10
2018-02-23T10:41:08.085Z,7.77
2018-02-23T10:43:34.785Z,7.60
2018-02-23T10:46:01.460Z,7.67
2018-02-23T10:48:28.156Z,7.60
2018-02-23T10:50:54.908Z,7.23
2018-02-23T10:53:21.532Z,7.50
2018-02-23T10:55:48.217Z,8.00
2018-02-23T10:58:14.985Z,8.17
2018-02-23T11:00:41.749Z,8.47
2018-02-23T11:03:08.446Z,8.33
2018-02-23T11:05:35.112Z,6.43
2018-02-23T11:08:02.010Z,8.43
2018-02-23T11:10:28.697Z,7.70
2018-02-23T11:12:55.389Z,7.90
2018-02-23T11:15:22.077Z,8.27
2018-02-23T11:17:48.799Z,8.77
2018-02-23T11:20:15.505Z,8.80
2018-02-23T11:22:42.201Z,9.03
2018-02-23T11:25:08.897Z,8.57
2018-02-23T11:27:35.581Z,7.43
2018-02-23T11:30:02.292Z,8.13
2018-02-23T11:32:29.009Z,9.13
2018-02-23T11:34:55.688Z,8.90
2018-02-23T11:37:23.102Z,8.40
2018-02-23T11:39:49.797Z,8.47
2018-02-23T11:42:16.602Z,8.20
2018-02-23T11:44:43.290Z,8.63
2018-02-23T11:47:10.004Z,8.97
2018-02-23T11:49:36.677Z,8.77
2018-02-23T11:52:03.481Z,9.10
2018-02-23T11:54:30.176Z,9.40
2018-02-23T11:56:56.884Z,8.73
2018-02-23T11:59:23.574Z,8.53
2018-02-23T12:01:50.324Z,8.07
2018-02-23T12:04:17.030Z,8.63
2018-02-23T12:06:43.702Z,8.20
2018-02-23T12:09:10.422Z,8.60
2018-02-23T12:11:37.097Z,8.90
2018-02-23T12:14:03.817Z,9.27
2018-02-23T12:16:30.513Z,8.60
2018-02-23T12:18:57.185Z,8.67
2018-02-23T12:21:23.919Z,9.93
2018-02-23T12:23:50.845Z,8.70
2018-02-23T12:26:17.557Z,8.77
2018-02-23T12:28:44.238Z,8.77
2018-02-23T12:31:10.921Z,9.30
2018-02-23T12:33:37.627Z,9.20
2018-02-23T12:36:04.326Z,9.23
2018-02-23T12:38:31.001Z,8.50
2018-02-23T12:40:57.686Z,9.60
2018-02-23T12:43:24.416Z,8.67
2018-02-23T12:45:51.118Z,8.30
2018-02-23T12:48:17.894Z,8.43
2018-02-23T12:50:44.579Z,8.40
2018-02-23T12:53:11.446Z,7.77
2018-02-23T12:55:38.186Z,9.77
2018-02-23T12:58:04.877Z,9.30
2018-02-23T13:00:31.570Z,8.30
2018-02-23T13:02:58.244Z,8.53
2018-02-23T13:05:24.961Z,9.00
2018-02-23T13:07:51.645Z,9.60
2018-02-23T13:10:18.410Z,8.93
2018-02-23T13:12:45.093Z,7.40
2018-02-23T13:15:17.685Z,8.20
2018-02-23T13:17:44.384Z,8.07
2018-02-23T13:20:11.085Z,8.20
2018-02-23T13:22:37.784Z,7.67
2018-02-23T13:25:04.465Z,8.90
2018-02-23T13:27:31.145Z,8.97
2018-02-23T13:29:58.049Z,8.50
2018-02-23T13:32:24.760Z,9.60
2018-02-23T13:34:51.456Z,7.80
2018-02-23T13:37:18.177Z,7.97
2018-02-23T13:40:00.546Z,8.50
2018-02-23T13:42:27.255Z,9.60
2018-02-23T13:44:53.942Z,8.07
2018-02-23T13:47:20.618Z,9.03
2018-02-23T13:49:47.333Z,8.70
2018-02-23T13:52:14.033Z,7.67
2018-02-23T13:54:41.536Z,9.67
2018-02-23T13:57:08.271Z,8.43
2018-02-23T13:59:34.963Z,9.83
2018-02-23T14:02:01.661Z,7.03
2018-02-23T14:04:28.372Z,9.53
2018-02-23T14:09:43.511Z,8.17
2018-02-23T14:12:10.255Z,8.60
2018-02-23T14:14:37.134Z,7.80
2018-02-23T14:17:03.849Z,9.33
2018-02-23T14:19:30.702Z,9.30
2018-02-23T14:21:57.485Z,9.40
2018-02-23T14:24:24.507Z,8.27
2018-02-23T14:26:51.197Z,8.50
2018-02-23T14:29:17.905Z,7.43
2018-02-23T14:31:44.586Z,7.23
2018-02-23T14:34:11.316Z,8.27
2018-02-23T14:36:38.018Z,7.90
2018-02-23T14:39:04.721Z,8.60
2018-02-23T14:41:31.404Z,8.60
2018-02-23T14:43:58.179Z,7.97
2018-02-23T14:46:24.861Z,8.90
2018-02-23T14:48:57.603Z,8.87
2018-02-23T14:51:24.278Z,8.53
2018-02-23T14:53:51.138Z,8.30
2018-02-23T14:56:17.848Z,8.73
2018-02-23T14:58:44.525Z,9.37
2018-02-23T15:01:11.242Z,8.50
2018-02-23T15:03:37.928Z,8.60
2018-02-23T15:06:04.645Z,9.80
2018-02-23T15:08:31.329Z,7.17
2018-02-23T15:10:58.045Z,6.90
2018-02-23T15:13:24.845Z,8.93
2018-02-23T15:15:51.541Z,9.00
2018-02-23T15:18:18.234Z,8.40
2018-02-23T15:20:44.911Z,7.77
2018-02-23T15:23:11.791Z,8.03
2018-02-23T15:25:38.465Z,7.83
2018-02-23T15:28:05.149Z,8.10
2018-02-23T15:30:37.621Z,7.90
2018-02-23T15:33:04.342Z,8.43
2018-02-23T15:35:31.145Z,6.00
2018-02-23T15:37:57.850Z,9.07
2018-02-23T15:40:24.576Z,8.77
2018-02-23T15:42:51.454Z,7.07
2018-02-23T15:45:18.133Z,7.90
2018-02-23T15:48:00.536Z,7.50
2018-02-23T15:50:46.122Z,8.07
2018-02-23T15:53:12.826Z,8.20
2018-02-23T15:55:39.515Z,7.70
2018-02-23T15:58:21.089Z,8.47
2018-02-23T16:00:47.785Z,8.53
2018-02-23T16:03:14.489Z,8.20
2018-02-23T16:05:41.161Z,8.40
2018-02-23T16:08:07.838Z,9.37
2018-02-23T16:10:34.585Z,9.27
2018-02-23T16:13:01.294Z,8.97
2018-02-23T16:15:28.021Z,8.20
2018-02-23T16:17:54.717Z,8.97
2018-02-23T16:20:21.420Z,9.07
2018-02-23T16:22:48.125Z,8.33
2018-02-23T16:25:14.976Z,7.83
2018-02-23T16:27:41.700Z,8.53
2018-02-23T16:30:08.379Z,8.23
2018-02-23T16:32:35.087Z,8.60
2018-02-23T16:35:01.785Z,8.20
2018-02-23T16:37:28.485Z,9.00
2018-02-23T16:39:55.322Z,9.60
2018-02-23T16:42:22.018Z,8.20
2018-02-23T16:44:48.728Z,10.43
2018-02-23T16:47:15.445Z,8.37
2018-02-23T16:49:42.126Z,8.00
2018-02-23T16:52:08.863Z,7.70
2018-02-23T16:54:35.727Z,8.23
2018-02-23T16:57:02.399Z,8.57
2018-02-23T16:59:29.081Z,8.13
2018-02-23T17:01:55.786Z,8.60
2018-02-23T17:04:22.478Z,8.00
2018-02-23T17:06:49.203Z,9.07
2018-02-23T17:09:15.877Z,9.10
2018-02-23T17:11:42.582Z,9.07
2018-02-23T17:14:09.287Z,8.40
2018-02-23T17:16:35.990Z,8.13
2018-02-23T17:19:02.867Z,9.00
2018-02-23T17:21:30.418Z,8.03
2018-02-23T17:23:58.442Z,10.27
2018-02-23T17:26:25.231Z,9.73
2018-02-23T17:28:51.925Z,9.83
2018-02-23T17:31:18.662Z,10.17
2018-02-23T17:33:45.391Z,9.57
2018-02-23T17:36:12.995Z,11.48
2018-02-23T17:38:39.742Z,11.32
2018-02-23T17:41:06.457Z,9.75
2018-02-23T17:43:33.155Z,11.77
2018-02-23T17:45:59.847Z,10.97
2018-02-23T17:48:27.462Z,9.40
2018-02-23T17:50:54.298Z,9.93
2018-02-23T17:53:22.259Z,10.00
2018-02-23T17:55:49.678Z,9.63
2018-02-23T17:58:17.286Z,9.40
2018-02-23T18:00:43.987Z,9.65
2018-02-23T18:03:10.720Z,9.57
2018-02-23T18:05:38.656Z,8.60
2018-02-23T18:08:05.346Z,9.98
2018-02-23T18:10:32.066Z,10.10
2018-02-23T18:12:58.831Z,10.60
2018-02-23T18:15:25.534Z,9.07
2018-02-23T18:17:52.250Z,9.73
2018-02-23T18:20:19.830Z,9.80
2018-02-23T18:22:46.551Z,10.27
2018-02-23T18:25:13.286Z,9.35
2018-02-23T18:27:40.436Z,11.00
2018-02-23T18:30:07.189Z,9.05
2018-02-23T18:32:34.531Z,10.27
2018-02-23T18:35:01.257Z,10.75
2018-02-23T18:37:28.062Z,9.73
2018-02-23T18:39:54.778Z,10.55
2018-02-23T18:42:21.573Z,11.27
2018-02-23T18:44:48.307Z,11.65
2018-02-23T18:47:15.097Z,11.32
2018-02-23T18:49:41.811Z,11.60
2018-02-23T18:52:08.528Z,11.30
2018-02-23T18:54:35.223Z,10.07
2018-02-23T18:57:01.945Z,10.85
2018-02-23T18:59:28.702Z,11.87
2018-02-23T19:01:55.432Z,10.60
2018-02-23T19:04:22.142Z,11.88
2018-02-23T19:06:48.869Z,10.77
2018-02-23T19:09:15.621Z,11.65
2018-02-23T19:11:42.328Z,10.38
2018-02-23T19:14:09.182Z,11.45
2018-02-23T19:16:35.921Z,10.57
2018-02-23T19:19:02.646Z,11.85
2018-02-23T19:21:29.372Z,12.40
2018-02-23T19:23:56.181Z,12.37
2018-02-23T19:26:22.884Z,14.30
2018-02-23T19:28:49.651Z,11.30
2018-02-23T19:31:16.367Z,10.88
2018-02-23T19:33:43.106Z,12.25
2018-02-23T19:36:09.853Z,12.52
2018-02-23T19:38:36.561Z,12.60
2018-02-23T19:41:03.286Z,12.35
2018-02-23T19:43:30.056Z,11.77
2018-02-23T19:45:56.770Z,10.57
2018-02-23T19:48:23.533Z,13.02
2018-02-23T19:50:50.214Z,11.77
2018-02-23T19:53:17.099Z,13.88
2018-02-23T19:55:43.795Z,12.75
2018-02-23T19:58:10.554Z,12.43
2018-02-23T20:00:37.269Z,12.15
2018-02-23T20:03:04.009Z,12.20
2018-02-23T20:05:30.725Z,12.10
2018-02-23T20:07:57.411Z,10.57
2018-02-23T20:10:24.195Z,10.65
2018-02-23T20:12:50.905Z,10.52
2018-02-23T20:15:17.695Z,12.73
2018-02-23T20:17:44.558Z,9.85
2018-02-23T20:20:11.285Z,13.65
2018-02-23T20:22:38.056Z,11.48
2018-02-23T20:25:04.780Z,11.68
2018-02-23T20:27:31.490Z,11.20
2018-02-23T20:29:58.225Z,11.85
2018-02-23T20:32:25.101Z,10.18
2018-02-23T20:34:51.852Z,12.37
2018-02-23T20:37:18.619Z,11.02
2018-02-23T20:39:45.334Z,10.40
2018-02-23T20:42:12.041Z,10.55
2018-02-23T20:44:38.784Z,10.10
2018-02-23T20:47:05.484Z,10.75
2018-02-23T20:49:32.209Z,10.23
2018-02-23T20:51:58.968Z,9.10
2018-02-23T20:54:25.686Z,10.15
2018-02-23T20:56:52.478Z,10.30
2018-02-23T20:59:19.171Z,10.45
2018-02-23T21:01:46.046Z,9.73
2018-02-23T21:04:12.753Z,10.50
2018-02-23T21:06:39.586Z,10.75
2018-02-23T21:09:06.297Z,9.90
2018-02-23T21:11:33.022Z,9.70
2018-02-23T21:13:59.746Z,10.50
2018-02-23T21:16:26.445Z,9.05
2018-02-23T21:18:53.175Z,10.75
2018-02-23T21:21:19.874Z,9.38
2018-02-23T21:23:46.616Z,9.25
2018-02-23T21:26:13.505Z,10.20
2018-02-23T21:28:40.204Z,10.18
2018-02-23T21:31:06.942Z,10.05
2018-02-23T21:33:33.648Z,9.27
2018-02-23T21:36:00.537Z,9.27
2018-02-23T21:38:27.238Z,9.00
2018-02-23T21:40:54.066Z,9.85
2018-02-23T21:43:20.786Z,8.52
2018-02-23T21:45:47.610Z,10.25
2018-02-23T21:48:14.370Z,10.23
2018-02-23T21:50:41.092Z,9.98
2018-02-23T21:53:07.816Z,10.75
2018-02-23T21:55:34.641Z,10.00
2018-02-23T21:58:01.356Z,10.25
2018-02-23T22:00:28.065Z,9.95
2018-02-23T22:02:54.778Z,9.30
2018-02-23T22:05:21.497Z,9.50
2018-02-23T22:07:48.286Z,9.50
2018-02-23T22:10:14.990Z,9.30
2018-02-23T22:12:41.736Z,9.40
2018-02-23T22:15:08.568Z,9.90
2018-02-23T22:17:35.284Z,10.05
2018-02-23T22:20:01.999Z,10.98
2018-02-23T22:22:28.718Z,9.68
2018-02-23T22:24:55.460Z,10.07
2018-02-23T22:27:22.393Z,11.10
2018-02-23T22:29:49.326Z,10.70
2018-02-23T22:32:16.026Z,9.45
2018-02-23T22:34:42.837Z,9.50
2018-02-23T22:37:09.585Z,9.65
2018-02-23T22:39:36.300Z,9.75
2018-02-23T22:42:03.015Z,10.55
2018-02-23T22:44:29.813Z,9.88
2018-02-23T22:46:56.553Z,11.82
2018-02-23T22:49:23.319Z,10.73
2018-02-23T22:51:50.044Z,9.98
2018-02-23T22:54:16.750Z,9.27
2018-02-23T22:56:43.476Z,10.50
2018-02-23T22:59:10.167Z,10.30
2018-02-23T23:01:36.849Z,9.90
2018-02-23T23:04:03.593Z,10.13
2018-02-23T23:06:30.274Z,9.73
2018-02-23T23:08:56.993Z,10.10
2018-02-23T23:11:23.713Z,10.20
2018-02-23T23:13:51.178Z,10.93
2018-02-23T23:16:17.891Z,10.15
2018-02-23T23:18:44.580Z,9.48
2018-02-23T23:21:11.289Z,10.82
2018-02-23T23:23:38.057Z,10.48
2018-02-23T23:26:04.930Z,12.20
2018-02-23T23:28:31.726Z,12.27
2018-02-23T23:30:58.462Z,11.75
2018-02-23T23:33:25.149Z,10.60
2018-02-23T23:35:51.844Z,10.65
2018-02-23T23:38:18.565Z,9.73
2018-02-23T23:40:45.284Z,12.68
2018-02-23T23:43:11.989Z,12.10
2018-02-23T23:45:38.727Z,11.85
2018-02-23T23:48:05.503Z,11.27
2018-02-23T23:50:32.217Z,11.57
2018-02-23T23:52:58.920Z,12.50
2018-02-23T23:55:25.620Z,12.48
2018-02-23T23:57:52.352Z,13.02
